Terminal Aerodrome Forecast
Issued by NWS Sterling, VA

Home | Current Version | Previous Version | Text Only | Print | Product List | Glossary On
Versions: 1 2 3 4 5 6 7 8 9 10 11 12 13 14 15 16 17 18 19 20 21 22
000
FTUS41 KLWX 211100 RRA
TAFDCA
TAF
KDCA 211141Z 2112/2212 00000KT P6SM SCT250
     FM211700 25006KT P6SM SCT250
     FM211900 24009KT P6SM BKN060
     FM220200 29005KT P6SM BKN060
     FM220600 30007KT P6SM SCT250
     FM220900 31012G18KT P6SM SCT250=

USA.gov is the U.S. government's official web portal to all federal, state and local government web resources and services.